AirNav   Pilot Hours Calculator
 
 733 users online  

8IA1 Hegg Memorial Hospital Heliport
Rock Valley, Iowa, USA

GOING TO ROCK VALLEY?


FAA INFORMATION EFFECTIVE 25 MARCH 2021

Location

FAA Identifier: 8IA1
Lat/Long: 43-12-04.3900N 096-17-00.7800W
43-12.073167N 096-17.013000W
43.2012194,-96.2835500
(estimated)
Elevation: 1268 ft. / 386 m (estimated)
Variation: 05E (1995)
Time zone: UTC -5 (UTC -6 during Standard Time)
Zip code: 51247

Heliport Operations

Heliport use: Private use, MEDICAL.
Activation date: 07/1996
Control tower: no
ARTCC: MINNEAPOLIS CENTER
FSS: FORT DODGE FLIGHT SERVICE STATION
Attendance: UNATNDD
Wind indicator: yes
Segmented circle: no
Lights: FOR PERIMETER LGTS CALL 712-476-5305.

Heliport Communications

WX AWOS-3P at SXK (14 nm S): 120.075 (712-567-1005)
WX AWOS-3 at SHL (20 nm E): 119.775 (712-324-5159)

Nearby radio navigation aids

VOR radial/distance  VOR name  Freq  Var
FSDr132/34.5SIOUX FALLS VORTAC115.0009E

Heliport Services

Runway Information

Helipad H1

Dimensions: 40 x 40 ft. / 12 x 12 m
Surface: concrete
Runway edge lights: PERI
Latitude: 43-12.073167N
Longitude: 096-17.013000W
Elevation: 1268.0 ft.
Traffic pattern: leftleft

Heliport Ownership and Management from official FAA records

Ownership: Privately-owned
Owner: HEGG MEMORIAL HOSPITAL
1202 21ST AVE
ROCK VALLEY, IA 51247
Phone 712-476-8000
Manager: GLENN ZEVENBERGEN, ADMINISTRATOR
1202 21ST AVE
ROCK VALLEY, IA 51247
Phone 712-476-8010
KEVIN MUNGER 712-476-8230

Additional Remarks

FOR CD CTC MINNEAPOLIS ARTCC AT 651-463-5588.

Instrument Procedures

There are no published instrument procedures at 8IA1.

Some nearby airports with instrument procedures:

KSXK - Sioux County Regional Airport (14 nm SE)
KRRQ - Rock Rapids Municipal Airport (16 nm N)
KSHL - Sheldon Regional Airport (20 nm E)
KISB - Sibley Municipal Airport (25 nm NE)
KLYV - Quentin Aanenson Field Airport (25 nm N)
 
Loc | Ops | Rwys | IFR | FBO | Links
Com | Nav | Svcs | Stats | Notes
Area around 8IA1 (Hegg Memorial Hospital Heliport)
 
Road maps at: MapQuest Bing Google
 
Aerial photo
No photo
 
Sectional chart

 
Airport distance calculator
Flying to Hegg Memorial Hospital Heliport? Find the distance to fly.

From to 8IA1

Sunrise and sunset
Times for 10-Apr-2021
 Local
(UTC-5)
 Zulu
(UTC)
Morning civil twilight06:2311:23
Sunrise06:5211:52
Sunset20:0101:01
Evening civil twilight20:3001:30

Current date and time
Zulu (UTC)  10-Apr-2021 12:56:22
Local (UTC-5)  10-Apr-2021 07:56:22
 
METAR
KSXK 
14nm SE 
101235Z AUTO 34008KT 10SM FEW015 05/05 A2981 RMK AO2
KSHL 
20nm E 
101235Z AUTO 33008KT 9SM CLR 04/04 A2979 RMK AO2
KLYV 
25nm N 
101235Z AUTO 33005KT 10SM CLR 01/00 A2982 RMK AO2
KLRJ 
26nm S 
101235Z AUTO 35005KT 10SM CLR 06/04 A2982 RMK AO2
TAF
KFSD 
31nm NW 
101120Z 1012/1112 34007KT P6SM FEW250 FM101500 34010KT P6SM SKC FM101700 34013G19KT P6SM SKC FM102300 34011KT P6SM SKC FM110200 33006KT P6SM SKC FM110400 VRB03KT P6SM SKC
NOTAMs
Click for the latest NOTAMs
NOTAMs are issued by the DoD/FAA and will open in a separate window not controlled by AirNav.

 

 
 

Would you like to see your business listed on this page?

 If your business provides an interesting product or service to pilots, flight crews, aircraft, or users of the Hegg Memorial Hospital Heliport, you should consider listing it here.  To start the listing process, click on the button below
 
Add a business
 

Other Pages about Hegg Memorial Hospital Heliport

Update a link
 
Copyright © AirNav, LLC. All rights reserved. Privacy Policy  Contact